Hualapai Flat, Nevada Weather observations

Data are for 10 minute period ending at time listed.
 Day   Time   Solar   Ave.   Ave.  Ave.  Vector  Max.   Baro.   Total    
  of    of     Rad.   Air    Rel.  Wind   Wind   Wind  Press.  Precip.   
Year   Day            Temp.  Hum.  Speed  Dir.   Gust                    
2016   (PST)  Kw/m2    F      %     mph   deg.    mph    mb.     in.     
-------------------------------------------------------------------------
 239   16:30   0.34   85.0    16    4.7   355     9.6   872.3    0.00 
 239   16:40   0.28   85.8    16    6.0   344    13.8   872.3    0.00 
 239   16:50   0.27   84.4    14   10.0   325    17.1   872.3    0.00 
 239   17:00   0.24   84.3    13   10.0   324    20.0   872.3    0.00 
 239   17:10   0.21   83.6    15    7.1   331    12.9   872.3    0.00 
 239   17:20   0.18   83.2    14    8.9   322    15.7   872.3    0.00 
 239   17:30   0.15   83.2    14   12.1   328    18.4   872.3    0.00 
 239   17:40   0.13   82.2    14   10.8   326    14.9   872.4    0.00 
 239   17:50   0.10   81.8    14   10.9   328    14.8   872.5    0.00 
 239   18:00   0.08   81.4    13   11.3   331    15.5   872.5    0.00 
 239   18:10   0.06   80.3    14    8.8   327    15.1   872.6    0.00 
 239   18:20   0.03   80.2    13   10.4   324    16.5   872.7    0.00 
 239   18:30   0.01   78.4    15    9.0   327    12.4   872.8    0.00 
 239   18:40   0.01   78.7    14    8.5   321    12.1   872.9    0.00 
 239   18:50   0.00   77.6    14    8.0   318     9.9   873.0    0.00 
 239   19:00   0.00   76.1    15    7.1   307     9.6   873.2    0.00 
 239   19:10   0.00   73.8    16    7.8   307     9.0   873.3    0.00 
 239   19:20   0.00   74.9    15    7.8   316    10.2   873.5    0.00 
 239   19:30   0.00   73.6    18    7.8   328     9.6   873.6    0.00 
 239   19:40   0.00   71.5    18    9.2   327    11.1   873.7    0.00 
 239   19:50   0.00   71.7    17    9.9   326    12.5   873.7    0.00 
 239   20:00   0.00   72.8    16   10.4   324    13.5   873.8    0.00 
 239   20:10   0.00   73.3    16   10.3   323    13.4   873.9    0.00 
 239   20:20   0.00   73.1    16   10.5   324    14.5   874.0    0.00 
 239   20:30   0.00   73.4    15   10.5   324    13.9   874.0    0.00 
 239   20:40   0.00   73.2    14   11.7   322    15.6   874.1    0.00 
 239   20:50   0.00   73.6    14   11.8   323    17.3   874.1    0.00 
 239   21:00   0.00   73.2    14   11.3   324    15.0   874.2    0.00 
 239   21:10   0.00   72.7    14   10.2   329    14.5   874.2    0.00 
 239   21:20   0.00   69.9    19    6.1   358     9.5   874.3    0.00 
 239   21:30   0.00   69.9    16    7.6   353    13.1   874.4    0.00 
 239   21:40   0.00   69.9    16    4.1   256     6.4   874.5    0.00 
 239   21:50   0.00   71.1    14    3.7   303     5.8   874.6    0.00 
 239   22:00   0.00   71.0    14    3.1   286     4.5   874.6    0.00 
 239   22:10   0.00   71.9    14    4.3   307     8.0   874.6    0.00 
 239   22:20   0.00   70.3    16    5.5   301     8.1   874.6    0.00 
 239   22:30   0.00   68.9    16    5.9   302     8.1   874.7    0.00 
 239   22:40   0.00   69.3    17    6.4   317     9.0   874.7    0.00 
 239   22:50   0.00   68.8    17    8.0   294    11.5   874.7    0.00 
 239   23:00   0.00   70.6    16    6.1   296     8.9   874.8    0.00 
 239   23:10   0.00   69.5    17    6.7   283     8.5   874.9    0.00 
 239   23:20   0.00   68.8    16    6.3   288     7.4   874.9    0.00 
 239   23:30   0.00   69.5    14    3.0   268     5.8   875.0    0.00 
 239   23:40   0.00   70.3    16    4.4   271     7.8   875.0    0.00 
 239   23:50   0.00   66.1    21    2.7    16     5.3   875.1    0.00 
 240    0:00   0.00   63.0    24    3.3     3     6.4   875.2    0.00 
 240    0:10   0.00   61.5    25    3.8   315     5.9   875.1    0.00 
 240    0:20   0.00   62.3    21    3.2   310     6.9   875.0    0.00 
 240    0:30   0.00   61.0    24    6.6   293     8.6   875.0    0.00 
 240    0:40   0.00   58.6    28    5.5   308     8.0   875.1    0.00 
 240    0:50   0.00   61.0    23    8.0   290     9.3   875.1    0.00 
 240    1:00   0.00   61.1    24    8.2   282    10.1   875.1    0.00 
 240    1:10   0.00   62.9    23    7.4   288     8.8   875.1    0.00 
 240    1:20   0.00   61.8    25    8.1   272     9.9   875.0    0.00 
 240    1:30   0.00   61.3    28    3.8   350     7.7   875.1    0.00 
 240    1:40   0.00   60.2    30    6.4   337     8.8   875.1    0.00 
 240    1:50   0.00   60.2    29    6.1   336     8.4   875.1    0.00 
 240    2:00   0.00   60.4    27    6.5   325     8.3   875.1    0.00 
 240    2:10   0.00   61.6    27    5.2   345     6.6   875.1    0.00 
 240    2:20   0.00   60.2    28    6.8   320     7.8   875.1    0.00 
 240    2:30   0.00   61.1    25    7.3   300     8.1   875.1    0.00 
 240    2:40   0.00   58.0    28    7.0   280     8.0   875.1    0.00 
 240    2:50   0.00   58.8    25    5.8   289     7.1   875.1    0.00 
 240    3:00   0.00   57.5    28    7.6   297     8.3   875.1    0.00 
 240    3:10   0.00   55.1    36    5.3   332     7.4   875.2    0.00 
 240    3:20   0.00   57.7    30    5.2   313     6.6   875.1    0.00 
 240    3:30   0.00   58.1    27    6.2   296     8.3   875.2    0.00 
 240    3:40   0.00   58.0    28    4.8   312     7.4   875.2    0.00 
 240    3:50   0.00   56.5    31    4.5   283     6.9   875.2    0.00 
 240    4:00   0.00   55.4    38    3.6   177     6.6   875.3    0.00 
 240    4:10   0.00   53.3    41    3.5   206     5.3   875.4    0.00 
 240    4:20   0.00   51.7    43    3.2   194     3.9   875.4    0.00 
 240    4:30   0.00   51.4    39    3.5   229     4.3   875.5    0.00 
 240    4:40   0.00   54.5    29    3.8   243     4.5   875.5    0.00 
 240    4:50   0.00   55.3    28    4.2   232     4.7   875.6    0.00 
 240    5:00   0.00   55.9    28    3.0   220     4.2   875.6    0.00 
 240    5:10   0.00   54.9    29    5.1   272     6.7   875.7    0.00 
 240    5:20   0.00   52.1    30    6.1   280     7.1   875.8    0.00 
 240    5:30   0.01   50.1    38    5.0   314     7.3   875.8    0.00 
 240    5:40   0.03   50.8    40    5.0   312     6.7   875.8    0.00 
 240    5:50   0.06   51.8    40    4.9   310     6.9   875.9    0.00 
 240    6:00   0.15   51.7    45    4.6   333     6.4   875.9    0.00 
 240    6:10   0.20   53.2    43    5.0   338     6.2   875.9    0.00 
 240    6:20   0.24   54.4    40    4.9   339     6.4   876.0    0.00 
 240    6:30   0.20   56.4    41    3.3   344     6.2   876.2    0.00 
 240    6:40   0.21   59.1    44    1.6    12     2.7   876.3    0.00 
 240    6:50   0.18   61.3    39    2.5   343     3.5   876.5    0.00 
 240    7:00   0.09   63.5    37    2.4   352     3.7   876.6    0.00 
 240    7:10   0.13   65.4    32    1.8   342     2.9   876.7    0.00 
 240    7:20   0.33   67.6    29    1.7   334     2.7   876.8    0.00 
 240    7:30   0.37   68.8    27    1.9   338     2.7   876.7    0.00 
 240    7:40   0.40   70.3    25    2.0   344     2.7   876.6    0.00 
 240    7:50   0.43   72.2    24    1.3    24     2.6   876.6    0.00 
 240    8:00   0.44   73.7    22    0.9    17     1.9   876.6    0.00 
 240    8:10   0.49   75.5    24    0.6   159     1.8   876.5    0.00 
 240    8:20   0.47   77.2    27    1.9   212     2.6   876.5    0.00 
 240    8:30   0.55   78.4    27    2.5   189     3.7   876.4    0.00 
 240    8:40   0.58   79.7    25    2.3   183     3.4   876.4    0.00 
 240    8:50   0.61   79.7    23    2.9   171     4.8   876.4    0.00 
 240    9:00   0.61   80.1    25    3.8   169     5.9   876.4    0.00 
 240    9:10   0.66   80.6    26    4.0   173     5.8   876.4    0.00 
 240    9:20   0.68   80.7    24    3.9   165     5.6   876.3    0.00 
 240    9:30   0.54   80.9    26    3.7   150     5.8   876.2    0.00 
 240    9:40   0.58   80.7    25    3.3   154     5.5   876.1    0.00 
 240    9:50   0.74   82.3    25    3.3   166     5.0   876.0    0.00 
 240   10:00   0.70   83.0    25    3.2   156     6.5   875.9    0.00 
 240   10:10   0.65   83.8    24    2.7   147     6.5   875.8    0.00 
 240   10:20   0.79   83.2    24    3.9   153     6.2   875.8    0.00 
 240   10:30   0.81   84.9    21    4.2   186     9.6   875.7    0.00 
 240   10:40   0.82   86.2    20    3.2   202     6.6   875.6    0.00 
 240   10:50   0.72   84.7    20    2.0   216     6.3   875.5    0.00 
 240   11:00   0.84   84.9    21    3.3   116     8.6   875.4    0.00 
 240   11:10   0.80   83.8    21    6.8   116    12.3   875.3    0.00 
 240   11:20   0.85   82.7    22    7.5   132    13.4   875.1    0.00 
 240   11:30   0.86   85.1    24    6.5   172    12.9   875.1    0.00 
 240   11:40   0.86   85.1    24    5.4   184     9.8   875.0    0.00 
 240   11:50   0.71   85.6    22    7.1   241    16.7   875.0    0.00 
 240   12:00   0.60   85.3    19    7.5   238    16.0   874.9    0.00 
 240   12:10   0.84   84.6    20   12.8   242    21.9   874.7    0.00 
 240   12:20   0.85   84.5    20   13.9   235    22.7   874.7    0.00 
 240   12:30   0.85   84.8    21   11.8   220    22.6   874.7    0.00 
 240   12:40   0.84   85.1    20   11.6   233    18.0   874.7    0.00 
 240   12:50   0.83   85.4    19   12.6   236    20.8   874.7    0.00 
 240   13:00   0.82   85.2    20   10.2   231    18.4   874.7    0.00 
 240   13:10   0.81   85.8    21   10.2   221    17.4   874.5    0.00 
 240   13:20   0.74   86.0    18    6.2   241    14.0   874.4    0.00 
 240   13:30   0.71   86.7    19    7.0   238    17.8   874.3    0.00 
 240   13:40   0.45   87.7    17    7.4   211    16.8   874.1    0.00 
 240   13:50   0.70   88.1    19    7.8   208    15.5   874.1    0.00 
 240   14:00   0.73   87.8    20    5.7   206     9.9   874.0    0.00 
 240   14:10   0.68   87.9    18    9.3   231    14.7   873.8    0.00 
 240   14:20   0.63   87.9    19    7.1   220    14.6   873.7    0.00 
 240   14:30   0.40   87.5    19    9.7   223    18.5   873.6    0.00 
 240   14:40   0.65   87.8    21    6.5   222    11.3   873.6    0.00 
 240   14:50   0.62   87.0    18    9.4   256    17.5   873.5    0.00 
 240   15:00   0.60   86.4    17   12.1   246    19.1   873.4    0.00 
 240   15:10   0.57   86.9    17    9.1   243    19.4   873.3    0.00 
 240   15:20   0.42   87.7    16    4.4   250    18.6   873.1    0.00 
 240   15:30   0.27   87.9    17   10.3   227    17.6   873.0    0.00 
 240   15:40   0.48   86.8    17    9.8   237    20.0   873.0    0.00 
 240   15:50   0.44   87.4    21    5.2   229    18.3   872.9    0.00 
 240   16:00   0.42   87.4    17    6.4   269    16.5   872.9    0.00 
 240   16:10   0.36   87.7    22    4.8   230    10.7   872.8    0.00 
 240   16:20   0.33   86.9    19    7.3   238    13.7   872.8    0.00 

Return to Hualapai Flat graphs page.


Western Regional Climate Center,wrcc@dri.edu